createdAt,value
2018-12-09T00:02:14.008Z,8.50
2018-12-09T00:04:44.978Z,8.50
2018-12-09T00:07:16.775Z,8.50
2018-12-09T00:09:47.893Z,8.50
2018-12-09T00:12:18.991Z,8.40
2018-12-09T00:14:49.952Z,8.40
2018-12-09T00:17:23.312Z,8.40
2018-12-09T00:19:55.123Z,8.40
2018-12-09T00:22:26.251Z,8.30
2018-12-09T00:24:57.184Z,8.20
2018-12-09T00:27:30.779Z,8.30
2018-12-09T00:29:59.995Z,8.20
2018-12-09T00:32:31.158Z,8.10
2018-12-09T00:35:02.409Z,8.10
2018-12-09T00:37:33.906Z,8.00
2018-12-09T00:40:07.789Z,8.00
2018-12-09T00:42:43.367Z,8.00
2018-12-09T00:45:12.398Z,8.00
2018-12-09T00:47:46.623Z,8.00
2018-12-09T00:50:18.010Z,8.00
2018-12-09T00:52:49.235Z,8.00
2018-12-09T00:55:22.871Z,7.90
2018-12-09T00:57:56.691Z,7.80
2018-12-09T01:00:27.944Z,7.80
2018-12-09T01:03:01.536Z,7.80
2018-12-09T01:05:35.435Z,7.80
2018-12-09T01:08:06.875Z,7.90
2018-12-09T01:10:37.787Z,7.80
2018-12-09T01:13:11.595Z,7.80
2018-12-09T01:15:45.389Z,7.80
2018-12-09T01:18:16.815Z,7.80
2018-12-09T01:20:50.416Z,7.80
2018-12-09T01:23:19.799Z,7.80
2018-12-09T01:25:50.679Z,7.90
2018-12-09T01:28:21.663Z,7.90
2018-12-09T01:30:55.175Z,7.90
2018-12-09T01:33:26.587Z,8.00
2018-12-09T01:35:57.515Z,7.80
2018-12-09T01:38:28.531Z,7.70
2018-12-09T01:40:59.562Z,7.80
2018-12-09T01:43:30.474Z,7.80
2018-12-09T01:46:03.939Z,7.80
2018-12-09T01:48:35.669Z,7.90
2018-12-09T01:51:06.647Z,7.90
2018-12-09T01:54:43.984Z,7.90
2018-12-09T01:57:15.647Z,7.90
2018-12-09T01:59:46.564Z,8.00
2018-12-09T02:02:18.003Z,8.00
2018-12-09T02:04:51.383Z,8.00
2018-12-09T02:07:25.338Z,7.90
2018-12-09T02:09:56.634Z,7.90
2018-12-09T02:12:27.657Z,7.90
2018-12-09T02:14:58.647Z,7.80
2018-12-09T02:17:30.565Z,7.80
2018-12-09T02:20:00.275Z,7.80
2018-12-09T02:22:31.151Z,7.80
2018-12-09T02:25:04.762Z,7.90
2018-12-09T02:27:38.623Z,7.80
2018-12-09T02:30:12.743Z,7.70
2018-12-09T02:32:44.220Z,7.80
2018-12-09T02:35:15.773Z,7.80
2018-12-09T02:37:46.789Z,7.80
2018-12-09T02:40:17.754Z,7.90
2018-12-09T02:42:48.599Z,7.90
2018-12-09T02:45:19.443Z,7.90
2018-12-09T02:47:50.355Z,7.80
2018-12-09T02:50:21.663Z,7.90
2018-12-09T02:52:53.503Z,7.90
2018-12-09T02:55:25.135Z,7.90
2018-12-09T02:57:56.292Z,7.90
2018-12-09T03:00:28.033Z,7.80
2018-12-09T03:02:59.085Z,7.70
2018-12-09T03:05:32.780Z,7.70
2018-12-09T03:08:04.282Z,7.70
2018-12-09T03:10:37.773Z,7.70
2018-12-09T03:13:09.263Z,7.70
2018-12-09T03:15:42.993Z,7.60
2018-12-09T03:18:14.711Z,7.60
2018-12-09T03:20:50.312Z,7.60
2018-12-09T03:23:21.271Z,7.60
2018-12-09T03:25:54.784Z,7.60
2018-12-09T03:28:26.227Z,7.60
2018-12-09T03:30:57.149Z,7.50
2018-12-09T03:33:29.205Z,7.50
2018-12-09T03:36:00.336Z,7.50
2018-12-09T03:38:32.036Z,7.60
2018-12-09T03:41:03.164Z,7.50
2018-12-09T03:43:34.995Z,7.50
2018-12-09T03:46:08.539Z,7.40
2018-12-09T03:48:42.399Z,7.40
2018-12-09T03:51:13.748Z,7.30
2018-12-09T03:53:44.824Z,7.30
2018-12-09T03:56:15.690Z,7.30
2018-12-09T03:58:49.490Z,7.30
2018-12-09T04:01:21.305Z,7.40
2018-12-09T04:03:56.703Z,7.40
2018-12-09T04:06:28.064Z,7.40
2018-12-09T04:08:59.255Z,7.40
2018-12-09T04:11:31.023Z,7.40
2018-12-09T04:14:04.891Z,7.40
2018-12-09T04:16:36.631Z,7.40
2018-12-09T04:19:10.650Z,7.30
2018-12-09T04:21:42.012Z,7.30
2018-12-09T04:24:12.723Z,7.40
2018-12-09T04:26:44.008Z,7.40
2018-12-09T04:29:14.776Z,7.40
2018-12-09T04:31:48.498Z,7.50
2018-12-09T04:34:20.103Z,7.50
2018-12-09T04:36:51.294Z,7.50
2018-12-09T04:39:24.679Z,7.40
2018-12-09T04:41:56.133Z,7.30
2018-12-09T04:44:26.993Z,7.40
2018-12-09T04:47:00.673Z,7.30
2018-12-09T04:49:30.275Z,7.20
2018-12-09T04:52:01.139Z,7.20
2018-12-09T04:54:34.967Z,7.10
2018-12-09T04:57:06.379Z,7.10
2018-12-09T04:59:47.667Z,7.10
2018-12-09T05:02:18.789Z,7.10
2018-12-09T05:04:49.715Z,7.00
2018-12-09T05:07:20.796Z,7.00
2018-12-09T05:09:52.140Z,6.90
2018-12-09T05:12:23.229Z,6.90
2018-12-09T05:14:54.035Z,7.00
2018-12-09T05:17:25.104Z,7.00
2018-12-09T05:19:56.351Z,6.80
2018-12-09T05:22:29.919Z,6.80
2018-12-09T05:25:01.518Z,6.80
2018-12-09T05:27:33.649Z,6.80
2018-12-09T05:30:05.407Z,6.80
2018-12-09T05:32:39.200Z,6.80
2018-12-09T05:35:10.694Z,6.80
2018-12-09T05:37:41.663Z,6.70
2018-12-09T05:40:12.860Z,6.70
2018-12-09T05:42:44.085Z,6.70
2018-12-09T05:45:15.144Z,6.70
2018-12-09T05:47:46.175Z,6.70
2018-12-09T05:50:15.403Z,6.70
2018-12-09T05:52:46.404Z,6.80
2018-12-09T05:55:17.451Z,6.90
2018-12-09T05:57:49.713Z,6.80
2018-12-09T06:00:21.325Z,6.90
2018-12-09T06:02:55.503Z,6.90
2018-12-09T06:05:27.290Z,6.80
2018-12-09T06:07:58.279Z,6.80
2018-12-09T06:10:31.855Z,6.80
2018-12-09T06:13:05.983Z,6.90
2018-12-09T06:15:39.387Z,6.90
2018-12-09T06:18:09.068Z,6.90
2018-12-09T06:20:40.144Z,7.00
2018-12-09T06:23:13.883Z,7.10
2018-12-09T06:25:45.360Z,7.10
2018-12-09T06:28:19.117Z,7.10
2018-12-09T06:30:50.503Z,7.10
2018-12-09T06:33:22.103Z,7.20
2018-12-09T06:35:53.315Z,7.20
2018-12-09T06:38:24.672Z,7.20
2018-12-09T06:40:55.676Z,7.10
2018-12-09T06:43:26.843Z,7.20
2018-12-09T06:45:57.999Z,7.20
2018-12-09T06:48:28.899Z,7.20
2018-12-09T06:50:59.971Z,7.20
2018-12-09T06:53:32.219Z,7.20
2018-12-09T06:56:03.827Z,7.30
2018-12-09T06:58:35.520Z,7.30
2018-12-09T07:01:06.495Z,7.30
2018-12-09T07:03:37.563Z,7.30
2018-12-09T07:06:08.930Z,7.30
2018-12-09T07:08:40.333Z,7.40
2018-12-09T07:11:13.748Z,7.40
2018-12-09T07:13:46.033Z,7.40
2018-12-09T07:16:17.382Z,7.50
2018-12-09T07:18:48.251Z,7.60
2018-12-09T07:21:19.243Z,7.50
2018-12-09T07:23:53.097Z,7.60
2018-12-09T07:26:24.644Z,7.60
2018-12-09T07:28:55.531Z,7.60
2018-12-09T07:31:26.736Z,7.70
2018-12-09T07:33:58.730Z,7.60
2018-12-09T07:36:30.526Z,7.70
2018-12-09T07:39:01.704Z,7.70
2018-12-09T07:41:32.847Z,7.80
2018-12-09T07:44:04.751Z,7.80
2018-12-09T07:46:35.598Z,7.70
2018-12-09T07:49:06.970Z,7.70
2018-12-09T07:51:41.235Z,7.70
2018-12-09T07:54:12.480Z,7.70
2018-12-09T07:56:46.007Z,7.60
2018-12-09T07:59:17.527Z,7.60
2018-12-09T08:01:48.355Z,7.60
2018-12-09T08:04:19.673Z,7.60
2018-12-09T08:06:50.775Z,7.70
2018-12-09T08:09:22.003Z,7.70
2018-12-09T08:11:53.903Z,7.80
2018-12-09T08:14:28.343Z,7.80
2018-12-09T08:16:59.576Z,7.80
2018-12-09T08:19:30.368Z,7.90
2018-12-09T08:22:01.655Z,7.90
2018-12-09T08:24:33.174Z,8.00
2018-12-09T08:27:04.772Z,8.10
2018-12-09T08:29:36.333Z,8.10
2018-12-09T08:32:07.491Z,8.20
2018-12-09T08:34:38.799Z,8.20
2018-12-09T08:37:10.472Z,8.20
2018-12-09T08:39:41.568Z,8.30
2018-12-09T08:42:14.919Z,8.40
2018-12-09T08:44:46.167Z,8.40
2018-12-09T08:47:19.649Z,8.60
2018-12-09T08:49:50.961Z,8.70
2018-12-09T08:52:21.919Z,8.80
2018-12-09T08:54:53.086Z,8.80
2018-12-09T08:57:23.971Z,8.80
2018-12-09T08:59:55.655Z,8.80
2018-12-09T09:02:29.077Z,8.70
2018-12-09T09:05:03.291Z,8.70
2018-12-09T09:07:34.507Z,8.80
2018-12-09T09:10:06.245Z,8.80
2018-12-09T09:12:37.720Z,8.80
2018-12-09T09:15:08.979Z,8.70
2018-12-09T09:17:40.322Z,8.80
2018-12-09T09:20:11.580Z,8.80
2018-12-09T09:22:45.596Z,8.70
2018-12-09T09:25:19.217Z,8.70
2018-12-09T09:27:49.051Z,8.70
2018-12-09T09:30:20.767Z,8.60
2018-12-09T09:32:52.259Z,8.70
2018-12-09T09:35:27.166Z,8.80
2018-12-09T09:38:00.919Z,8.70
2018-12-09T09:40:32.243Z,8.70
2018-12-09T09:43:06.007Z,8.60
2018-12-09T09:45:39.759Z,8.50
2018-12-09T09:48:10.819Z,8.40
2018-12-09T09:50:41.798Z,8.50
2018-12-09T09:53:12.844Z,8.40
2018-12-09T09:55:44.593Z,8.40
2018-12-09T09:58:16.826Z,8.40
2018-12-09T10:00:47.846Z,8.50
2018-12-09T10:03:25.833Z,8.50
2018-12-09T10:05:54.852Z,8.60
2018-12-09T10:08:25.619Z,8.60
2018-12-09T10:10:56.525Z,8.60
2018-12-09T10:13:27.764Z,8.70
2018-12-09T10:15:59.463Z,8.60
2018-12-09T10:18:33.051Z,8.80
2018-12-09T10:21:04.561Z,8.80
2018-12-09T10:23:35.555Z,8.80
2018-12-09T10:26:06.740Z,8.80
2018-12-09T10:28:41.457Z,8.90
2018-12-09T10:31:13.135Z,8.90
2018-12-09T10:33:46.485Z,9.10
2018-12-09T10:36:17.854Z,9.10
2018-12-09T10:38:48.867Z,9.00
2018-12-09T10:41:19.783Z,9.10
2018-12-09T10:43:50.822Z,9.10
2018-12-09T10:46:21.960Z,9.10
2018-12-09T10:48:52.843Z,9.20
2018-12-09T10:51:26.414Z,9.20
2018-12-09T10:53:57.943Z,9.20
2018-12-09T10:56:31.479Z,9.20
2018-12-09T10:59:03.048Z,9.20
2018-12-09T11:01:37.977Z,9.00
2018-12-09T11:04:09.631Z,9.10
2018-12-09T11:06:41.083Z,9.20
2018-12-09T11:09:18.523Z,9.10
2018-12-09T11:11:50.057Z,8.90
2018-12-09T11:14:24.371Z,8.90
2018-12-09T11:16:55.859Z,8.90
2018-12-09T11:19:26.819Z,8.80
2018-12-09T11:21:57.890Z,8.80
2018-12-09T11:24:31.619Z,8.90
2018-12-09T11:27:02.983Z,8.90
2018-12-09T11:29:34.503Z,8.80
2018-12-09T11:32:10.119Z,8.80
2018-12-09T11:34:41.707Z,8.80
2018-12-09T11:37:12.683Z,8.70
2018-12-09T11:39:43.761Z,8.60
2018-12-09T11:42:14.856Z,8.40
2018-12-09T11:44:46.242Z,8.40
2018-12-09T11:47:19.608Z,8.60
2018-12-09T11:49:51.112Z,8.50
2018-12-09T11:52:22.236Z,8.30
2018-12-09T11:54:53.911Z,8.40
2018-12-09T11:57:24.946Z,8.30
2018-12-09T11:59:58.560Z,8.30
2018-12-09T12:02:29.803Z,8.30
2018-12-09T12:05:03.918Z,8.30
2018-12-09T12:07:34.763Z,8.30
2018-12-09T12:10:07.224Z,8.30
2018-12-09T12:15:45.272Z,8.20
2018-12-09T12:18:16.777Z,8.20
2018-12-09T12:20:48.360Z,8.20
2018-12-09T12:23:21.957Z,8.20
2018-12-09T12:25:54.103Z,8.20
2018-12-09T12:28:28.070Z,8.20
2018-12-09T12:30:59.455Z,8.20
2018-12-09T12:33:30.368Z,8.20
2018-12-09T12:36:01.455Z,8.20
2018-12-09T12:41:04.262Z,8.20
2018-12-09T12:43:37.867Z,8.30
2018-12-09T12:46:07.215Z,8.30
2018-12-09T12:48:39.249Z,8.30
2018-12-09T12:51:10.367Z,8.20
2018-12-09T12:53:41.549Z,8.30
2018-12-09T12:56:13.181Z,8.30
2018-12-09T12:58:44.127Z,8.30
2018-12-09T13:01:15.295Z,8.30
2018-12-09T13:03:47.120Z,8.30
2018-12-09T13:06:18.647Z,8.30
2018-12-09T13:08:50.165Z,8.30
2018-12-09T13:11:21.132Z,8.10
2018-12-09T13:13:52.949Z,8.10
2018-12-09T13:16:23.831Z,8.10
2018-12-09T13:18:54.801Z,8.00
2018-12-09T13:21:30.581Z,8.00
2018-12-09T13:24:01.820Z,8.00
2018-12-09T13:26:33.659Z,7.80
2018-12-09T13:29:04.982Z,7.80
2018-12-09T13:31:36.687Z,7.90
2018-12-09T13:34:07.766Z,7.70
2018-12-09T13:36:38.475Z,7.70
2018-12-09T13:44:16.768Z,7.50
2018-12-09T13:46:50.847Z,7.60
2018-12-09T13:49:22.367Z,7.50
2018-12-09T13:51:53.513Z,7.40
2018-12-09T13:54:24.491Z,7.50
2018-12-09T13:56:55.676Z,7.40
2018-12-09T13:59:29.390Z,7.30
2018-12-09T14:02:01.094Z,7.30
2018-12-09T14:04:35.254Z,7.20
2018-12-09T14:07:06.723Z,7.10
2018-12-09T14:09:37.465Z,7.10
2018-12-09T14:12:09.113Z,7.20
2018-12-09T14:14:40.467Z,7.10
2018-12-09T14:17:13.999Z,7.20
2018-12-09T14:19:45.730Z,7.00
2018-12-09T14:22:16.875Z,7.10
2018-12-09T14:24:50.715Z,7.20
2018-12-09T14:27:23.335Z,7.20
2018-12-09T14:29:54.439Z,7.20
2018-12-09T14:32:26.179Z,7.10
2018-12-09T14:34:57.971Z,6.90
2018-12-09T14:37:28.899Z,7.00
2018-12-09T14:40:00.049Z,7.00
2018-12-09T14:42:32.080Z,6.90
2018-12-09T14:45:05.068Z,6.90
2018-12-09T14:47:36.639Z,6.90
2018-12-09T14:50:08.664Z,6.80
2018-12-09T14:52:39.403Z,6.70
2018-12-09T14:55:10.549Z,6.70
2018-12-09T14:57:42.478Z,6.80
2018-12-09T15:00:14.267Z,6.70
2018-12-09T15:02:45.222Z,6.70
2018-12-09T15:05:16.380Z,6.60
2018-12-09T15:07:50.236Z,6.70
2018-12-09T15:10:21.401Z,6.70
2018-12-09T15:12:53.406Z,6.80
2018-12-09T15:15:24.242Z,6.80
2018-12-09T15:17:55.504Z,6.80
2018-12-09T15:20:26.455Z,6.80
2018-12-09T15:22:57.443Z,6.80
2018-12-09T15:25:28.236Z,6.80
2018-12-09T15:27:59.493Z,6.80
2018-12-09T15:30:32.765Z,6.90
2018-12-09T15:33:06.936Z,6.80
2018-12-09T15:35:38.350Z,6.80
2018-12-09T15:38:11.825Z,6.80
2018-12-09T15:40:43.363Z,6.80
2018-12-09T15:48:16.346Z,6.80
2018-12-09T15:50:50.307Z,6.80
2018-12-09T15:53:21.123Z,6.80
2018-12-09T15:55:52.391Z,6.80
2018-12-09T15:58:23.363Z,6.80
2018-12-09T16:03:54.683Z,6.80
2018-12-09T16:06:25.644Z,6.80
2018-12-09T16:08:56.584Z,6.80
2018-12-09T16:11:27.659Z,6.80
2018-12-09T16:13:58.671Z,6.80
2018-12-09T16:16:29.851Z,6.80
2018-12-09T16:19:00.673Z,6.70
2018-12-09T16:21:31.763Z,6.60
2018-12-09T16:24:02.931Z,6.60
2018-12-09T16:26:34.114Z,6.40
2018-12-09T16:29:04.991Z,6.30
2018-12-09T16:31:35.942Z,6.40
2018-12-09T16:34:06.912Z,6.40
2018-12-09T16:36:37.806Z,6.30
2018-12-09T16:39:09.056Z,6.40
2018-12-09T16:41:42.311Z,6.30
2018-12-09T16:44:13.695Z,6.30
2018-12-09T16:46:44.835Z,6.20
2018-12-09T16:49:18.148Z,6.20
2018-12-09T16:51:47.909Z,6.10
2018-12-09T16:54:18.767Z,6.10
2018-12-09T16:56:49.923Z,6.00
2018-12-09T16:59:21.015Z,5.90
2018-12-09T17:01:54.369Z,5.90
2018-12-09T17:04:25.820Z,5.90
2018-12-09T17:06:57.223Z,6.00
2018-12-09T17:09:28.991Z,6.00
2018-12-09T17:12:00.095Z,6.00
2018-12-09T17:14:32.162Z,5.90
2018-12-09T17:17:04.078Z,6.00
2018-12-09T17:19:34.975Z,5.90
2018-12-09T17:22:06.053Z,5.90
2018-12-09T17:24:36.992Z,5.90
2018-12-09T17:27:07.805Z,5.80
2018-12-09T17:29:38.564Z,5.90
2018-12-09T17:32:09.598Z,5.80
2018-12-09T17:34:42.961Z,5.90
2018-12-09T17:37:14.506Z,6.00
2018-12-09T17:39:48.345Z,6.10
2018-12-09T17:42:22.235Z,6.10
2018-12-09T17:44:53.709Z,6.10
2018-12-09T17:47:25.557Z,6.10
2018-12-09T17:49:57.216Z,6.10
2018-12-09T17:52:31.389Z,6.20
2018-12-09T17:55:03.251Z,6.20
2018-12-09T17:57:34.018Z,6.30
2018-12-09T18:00:07.320Z,6.30
2018-12-09T18:02:39.036Z,6.40
2018-12-09T18:05:12.592Z,6.30
2018-12-09T18:07:44.039Z,6.20
2018-12-09T18:10:15.184Z,6.20
2018-12-09T18:12:48.157Z,6.20
2018-12-09T18:15:22.075Z,6.20
2018-12-09T18:17:53.067Z,6.20
2018-12-09T18:20:26.543Z,6.10
2018-12-09T18:22:57.989Z,6.10
2018-12-09T18:25:29.067Z,6.00
2018-12-09T18:28:00.064Z,6.00
2018-12-09T18:30:34.787Z,6.00
2018-12-09T18:33:06.488Z,6.00
2018-12-09T18:35:38.291Z,6.00
2018-12-09T18:38:09.682Z,5.90
2018-12-09T18:40:41.727Z,6.00
2018-12-09T18:43:12.534Z,6.00
2018-12-09T18:45:43.539Z,6.00
2018-12-09T18:48:14.686Z,5.90
2018-12-09T18:50:45.614Z,6.00
2018-12-09T18:53:16.698Z,6.10
2018-12-09T18:55:48.438Z,6.10
2018-12-09T18:58:19.136Z,6.00
2018-12-09T19:00:50.283Z,6.10
2018-12-09T19:03:22.097Z,6.10
2018-12-09T19:05:53.446Z,6.10
2018-12-09T19:08:25.102Z,6.10
2018-12-09T19:10:56.524Z,6.10
2018-12-09T19:13:28.040Z,6.10
2018-12-09T19:15:58.967Z,6.00
2018-12-09T19:18:30.136Z,6.00
2018-12-09T19:21:02.074Z,5.90
2018-12-09T19:23:32.923Z,5.90
2018-12-09T19:26:03.939Z,5.90
2018-12-09T19:28:37.667Z,5.90
2018-12-09T19:31:11.475Z,5.80
2018-12-09T19:33:44.813Z,5.80
2018-12-09T19:36:16.288Z,6.00
2018-12-09T19:38:47.466Z,6.00
2018-12-09T19:41:20.962Z,5.90
2018-12-09T19:43:54.733Z,5.90
2018-12-09T19:46:26.275Z,5.70
2018-12-09T19:48:57.277Z,5.70
2018-12-09T19:51:28.391Z,5.60
2018-12-09T19:53:59.522Z,5.70
2018-12-09T19:56:30.717Z,5.50
2018-12-09T19:59:04.191Z,5.50
2018-12-09T20:01:35.518Z,5.40
2018-12-09T20:04:06.499Z,5.50
2018-12-09T20:06:37.447Z,5.70
2018-12-09T20:09:08.511Z,5.50
2018-12-09T20:11:39.344Z,5.40
2018-12-09T20:14:12.944Z,5.50
2018-12-09T20:16:46.978Z,5.50
2018-12-09T20:19:18.401Z,5.50
2018-12-09T20:21:51.943Z,5.50
2018-12-09T20:24:23.395Z,5.50
2018-12-09T20:26:55.139Z,5.50
2018-12-09T20:29:26.208Z,5.50
2018-12-09T20:31:59.808Z,5.50
2018-12-09T20:34:31.096Z,5.50
2018-12-09T20:37:05.630Z,5.50
2018-12-09T20:39:37.078Z,5.50
2018-12-09T20:42:08.410Z,5.50
2018-12-09T20:44:39.234Z,5.50
2018-12-09T20:47:10.161Z,5.60
2018-12-09T20:49:41.247Z,5.60
2018-12-09T20:57:16.127Z,5.70
2018-12-09T20:59:47.163Z,5.80
2018-12-09T21:02:19.109Z,5.80
2018-12-09T21:04:50.627Z,5.80
2018-12-09T21:07:21.701Z,5.80
2018-12-09T21:09:53.421Z,5.80
2018-12-09T21:12:28.011Z,5.90
2018-12-09T21:14:58.780Z,6.00
2018-12-09T21:17:29.887Z,5.90
2018-12-09T21:20:00.647Z,5.70
2018-12-09T21:22:31.599Z,5.60
2018-12-09T21:25:02.950Z,5.50
2018-12-09T21:27:34.659Z,5.40
2018-12-09T21:30:06.375Z,5.30
2018-12-09T21:32:40.044Z,5.20
2018-12-09T21:35:11.715Z,5.20
2018-12-09T21:37:42.646Z,5.10
2018-12-09T21:40:13.907Z,5.00
2018-12-09T21:42:45.361Z,4.90
2018-12-09T21:45:17.124Z,5.00
2018-12-09T21:47:48.279Z,5.00
2018-12-09T21:50:18.999Z,4.90
2018-12-09T21:52:49.976Z,4.90
2018-12-09T21:55:21.892Z,4.90
2018-12-09T22:02:56.503Z,4.70
2018-12-09T22:05:27.719Z,4.80
2018-12-09T22:07:57.585Z,4.70
2018-12-09T22:10:28.338Z,4.60
2018-12-09T22:12:59.324Z,4.60
2018-12-09T22:15:30.615Z,4.70
2018-12-09T22:18:01.633Z,4.60
2018-12-09T22:20:32.657Z,4.60
2018-12-09T22:23:03.506Z,4.60
2018-12-09T22:25:34.844Z,4.50
2018-12-09T22:28:05.850Z,4.40
2018-12-09T22:30:37.095Z,4.20
2018-12-09T22:33:08.887Z,4.20
2018-12-09T22:35:39.992Z,4.20
2018-12-09T22:38:11.028Z,4.20
2018-12-09T22:40:44.767Z,4.20
2018-12-09T22:43:16.119Z,4.20
2018-12-09T22:45:47.391Z,4.10
2018-12-09T22:48:18.464Z,4.10
2018-12-09T22:50:49.465Z,4.00
2018-12-09T22:53:20.502Z,4.00
2018-12-09T22:55:53.904Z,3.90
2018-12-09T22:58:25.488Z,3.80
2018-12-09T23:01:03.311Z,3.90
2018-12-09T23:06:16.383Z,3.80
2018-12-09T23:08:47.266Z,3.60
2018-12-09T23:11:18.267Z,3.50
2018-12-09T23:13:49.547Z,3.50
2018-12-09T23:16:21.244Z,3.50
2018-12-09T23:18:52.299Z,3.70
2018-12-09T23:21:23.186Z,3.60
2018-12-09T23:23:54.217Z,3.70
2018-12-09T23:26:24.847Z,3.70
2018-12-09T23:28:58.679Z,3.90
2018-12-09T23:31:29.798Z,4.00
2018-12-09T23:34:00.801Z,3.90
2018-12-09T23:36:31.577Z,4.10
2018-12-09T23:39:03.815Z,4.20
2018-12-09T23:41:35.515Z,4.30
2018-12-09T23:44:06.655Z,4.30
2018-12-09T23:46:38.219Z,4.50
2018-12-09T23:49:12.353Z,4.60
2018-12-09T23:51:43.379Z,4.60
2018-12-09T23:54:14.503Z,4.70
2018-12-09T23:56:48.019Z,4.80
2018-12-09T23:59:19.345Z,4.80
